createdAt,value
2022-11-23T00:01:26.920Z,8.70
2022-11-23T00:03:56.300Z,8.70
2022-11-23T00:06:25.147Z,8.80
2022-11-23T00:08:52.998Z,8.80
2022-11-23T00:11:20.695Z,8.70
2022-11-23T00:13:48.016Z,8.60
2022-11-23T00:16:20.827Z,8.60
2022-11-23T00:18:48.064Z,8.60
2022-11-23T00:21:16.895Z,8.50
2022-11-23T00:23:44.959Z,8.70
2022-11-23T00:26:12.640Z,8.70
2022-11-23T00:28:40.684Z,8.60
2022-11-23T00:31:08.742Z,8.60
2022-11-23T00:33:35.613Z,8.60
2022-11-23T00:36:08.173Z,8.60
2022-11-23T00:38:35.373Z,8.70
2022-11-23T00:41:04.713Z,8.60
2022-11-23T00:43:31.652Z,8.70
2022-11-23T00:46:10.232Z,8.70
2022-11-23T00:48:37.672Z,8.70
2022-11-23T00:51:06.437Z,8.70
2022-11-23T00:53:33.411Z,8.60
2022-11-23T00:56:00.221Z,8.60
2022-11-23T00:58:27.113Z,8.60
2022-11-23T01:01:02.074Z,8.70
2022-11-23T01:03:30.243Z,8.80
2022-11-23T01:06:03.025Z,8.80
2022-11-23T01:08:29.796Z,8.90
2022-11-23T01:11:01.299Z,8.80
2022-11-23T01:13:28.262Z,8.80
2022-11-23T01:15:55.088Z,8.80
2022-11-23T01:18:22.638Z,8.90
2022-11-23T01:20:49.372Z,8.80
2022-11-23T01:23:16.221Z,8.90
2022-11-23T01:25:42.951Z,8.80
2022-11-23T01:28:09.874Z,8.80
2022-11-23T01:30:36.630Z,8.80
2022-11-23T01:33:03.885Z,8.80
2022-11-23T01:35:30.988Z,8.80
2022-11-23T01:37:57.847Z,8.80
2022-11-23T01:40:24.790Z,8.70
2022-11-23T01:43:01.512Z,8.70
2022-11-23T01:45:36.408Z,8.80
2022-11-23T01:48:17.889Z,8.80
2022-11-23T01:50:48.193Z,8.80
2022-11-23T01:53:15.964Z,8.70
2022-11-23T01:55:45.639Z,8.70
2022-11-23T01:58:15.903Z,8.60
2022-11-23T02:00:42.755Z,8.70
2022-11-23T02:03:09.770Z,8.80
2022-11-23T02:05:44.858Z,8.80
2022-11-23T02:08:13.552Z,8.70
2022-11-23T02:10:40.319Z,8.60
2022-11-23T02:13:11.935Z,8.80
2022-11-23T02:15:39.550Z,8.90
2022-11-23T02:18:15.148Z,8.90
2022-11-23T02:20:44.003Z,8.80
2022-11-23T02:23:34.863Z,8.70
2022-11-23T02:26:07.561Z,8.70
2022-11-23T02:28:38.855Z,8.70
2022-11-23T02:31:05.708Z,8.60
2022-11-23T02:33:32.475Z,8.70
2022-11-23T02:36:01.164Z,8.70
2022-11-23T02:38:32.752Z,8.80
2022-11-23T02:40:59.575Z,8.60
2022-11-23T02:43:26.490Z,8.50
2022-11-23T02:45:56.446Z,8.60
2022-11-23T02:48:23.423Z,8.50
2022-11-23T02:50:50.098Z,8.50
2022-11-23T02:53:18.526Z,8.50
2022-11-23T02:55:45.321Z,8.50
2022-11-23T02:58:12.611Z,8.50
2022-11-23T03:00:40.567Z,8.60
2022-11-23T03:03:07.416Z,8.60
2022-11-23T03:05:34.142Z,8.70
2022-11-23T03:08:00.960Z,8.60
2022-11-23T03:10:27.766Z,8.70
2022-11-23T03:12:56.519Z,8.60
2022-11-23T03:15:24.218Z,8.40
2022-11-23T03:17:51.560Z,8.40
2022-11-23T03:20:18.748Z,8.50
2022-11-23T03:22:45.744Z,8.50
2022-11-23T03:25:12.675Z,8.50
2022-11-23T03:27:39.719Z,8.50
2022-11-23T03:30:08.339Z,8.50
2022-11-23T03:32:35.716Z,8.50
2022-11-23T03:35:03.959Z,8.60
2022-11-23T03:37:30.766Z,8.60
2022-11-23T03:39:57.532Z,8.50
2022-11-23T03:42:24.280Z,8.30
2022-11-23T03:44:51.070Z,8.40
2022-11-23T03:47:17.825Z,8.40
2022-11-23T03:49:44.551Z,8.50
2022-11-23T03:52:11.326Z,8.40
2022-11-23T03:54:38.052Z,8.30
2022-11-23T03:57:04.809Z,8.40
2022-11-23T03:59:31.906Z,8.40
2022-11-23T04:01:58.858Z,8.20
2022-11-23T04:04:25.602Z,8.30
2022-11-23T04:06:52.412Z,8.30
2022-11-23T04:09:19.115Z,8.20
2022-11-23T04:11:45.870Z,8.30
2022-11-23T04:14:12.625Z,8.20
2022-11-23T04:16:39.392Z,8.20
2022-11-23T04:19:06.112Z,8.30
2022-11-23T04:21:32.873Z,8.20
2022-11-23T04:23:59.948Z,8.20
2022-11-23T04:26:26.839Z,8.30
2022-11-23T04:28:53.631Z,8.30
2022-11-23T04:31:20.559Z,8.30
2022-11-23T04:33:47.317Z,8.40
2022-11-23T04:36:14.085Z,8.40
2022-11-23T04:38:40.793Z,8.30
2022-11-23T04:41:07.594Z,8.20
2022-11-23T04:43:34.401Z,8.20
2022-11-23T04:46:01.124Z,8.20
2022-11-23T04:48:27.907Z,8.20
2022-11-23T04:50:55.971Z,8.10
2022-11-23T04:53:22.823Z,8.20
2022-11-23T04:55:49.576Z,8.10
2022-11-23T04:58:16.470Z,8.10
2022-11-23T05:00:43.263Z,8.20
2022-11-23T05:03:10.112Z,8.20
2022-11-23T05:05:40.584Z,8.10
2022-11-23T05:08:08.617Z,8.00
2022-11-23T05:10:36.917Z,8.00
2022-11-23T05:13:04.376Z,7.90
2022-11-23T05:15:31.228Z,8.00
2022-11-23T05:18:06.818Z,7.90
2022-11-23T05:20:34.648Z,7.80
2022-11-23T05:23:01.497Z,7.90
2022-11-23T05:25:28.645Z,7.80
2022-11-23T05:27:55.695Z,7.80
2022-11-23T05:30:22.793Z,7.80
2022-11-23T05:32:49.663Z,7.70
2022-11-23T05:35:16.723Z,7.70
2022-11-23T05:37:43.477Z,7.70
2022-11-23T05:40:11.855Z,7.70
2022-11-23T05:42:38.593Z,7.80
2022-11-23T05:45:11.052Z,7.70
2022-11-23T05:47:38.382Z,7.70
2022-11-23T05:50:05.912Z,7.80
2022-11-23T05:52:32.859Z,7.70
2022-11-23T05:54:59.652Z,7.80
2022-11-23T05:57:26.370Z,7.80
2022-11-23T05:59:53.104Z,7.80
2022-11-23T06:02:19.885Z,7.80
2022-11-23T06:04:46.714Z,7.50
2022-11-23T06:07:13.630Z,7.30
2022-11-23T06:09:40.537Z,7.20
2022-11-23T06:12:07.529Z,7.30
2022-11-23T06:14:34.253Z,7.30
2022-11-23T06:17:00.993Z,7.40
2022-11-23T06:19:30.604Z,7.20
2022-11-23T06:21:57.858Z,7.30
2022-11-23T06:24:25.014Z,7.30
2022-11-23T06:26:52.777Z,7.20
2022-11-23T06:29:22.706Z,7.20
2022-11-23T06:31:49.493Z,7.20
2022-11-23T06:34:16.442Z,7.20
2022-11-23T06:36:43.371Z,7.00
2022-11-23T06:39:10.596Z,7.10
2022-11-23T06:41:38.535Z,7.10
2022-11-23T06:44:05.606Z,7.20
2022-11-23T06:46:32.757Z,7.10
2022-11-23T06:48:59.588Z,6.90
2022-11-23T06:51:26.315Z,6.90
2022-11-23T06:53:53.702Z,7.00
2022-11-23T06:56:20.471Z,7.00
2022-11-23T06:58:47.403Z,7.00
2022-11-23T07:01:14.658Z,7.10
2022-11-23T07:03:41.537Z,7.00
2022-11-23T07:06:10.086Z,6.90
2022-11-23T07:08:43.207Z,6.90
2022-11-23T07:11:11.551Z,6.70
2022-11-23T07:13:39.037Z,6.70
2022-11-23T07:16:07.523Z,6.70
2022-11-23T07:18:35.283Z,6.80
2022-11-23T07:21:01.985Z,6.80
2022-11-23T07:23:28.767Z,6.70
2022-11-23T07:25:55.552Z,6.60
2022-11-23T07:28:23.519Z,6.60
2022-11-23T07:30:52.032Z,6.60
2022-11-23T07:33:18.885Z,6.60
2022-11-23T07:35:45.672Z,6.60
2022-11-23T07:38:12.415Z,6.50
2022-11-23T07:40:39.759Z,6.50
2022-11-23T07:43:07.491Z,6.40
2022-11-23T07:45:34.714Z,6.50
2022-11-23T07:48:07.004Z,6.40
2022-11-23T07:50:34.935Z,6.40
2022-11-23T07:53:03.709Z,6.40
2022-11-23T07:55:31.750Z,6.30
2022-11-23T07:57:58.938Z,6.30
2022-11-23T08:00:27.752Z,6.30
2022-11-23T08:03:25.741Z,6.30
2022-11-23T08:05:41.226Z,6.40
2022-11-23T08:08:08.177Z,6.40
2022-11-23T08:10:38.781Z,6.30
2022-11-23T08:13:08.897Z,6.40
2022-11-23T08:15:36.310Z,6.40
2022-11-23T08:18:04.481Z,6.50
2022-11-23T08:20:32.519Z,6.50
2022-11-23T08:22:59.593Z,6.40
2022-11-23T08:25:27.979Z,6.50
2022-11-23T08:27:59.519Z,6.60
2022-11-23T08:30:28.522Z,6.70
2022-11-23T08:32:55.260Z,6.70
2022-11-23T08:35:22.504Z,6.80
2022-11-23T08:37:49.349Z,6.90
2022-11-23T08:40:20.650Z,7.00
2022-11-23T08:42:50.602Z,7.00
2022-11-23T08:45:17.952Z,7.00
2022-11-23T08:47:45.502Z,7.00
2022-11-23T08:50:12.416Z,7.00
2022-11-23T08:52:39.139Z,7.20
2022-11-23T08:55:06.495Z,7.10
2022-11-23T08:57:33.360Z,7.10
2022-11-23T09:00:00.529Z,7.20
2022-11-23T09:02:27.275Z,7.20
2022-11-23T09:04:54.022Z,7.20
2022-11-23T09:07:20.823Z,7.20
2022-11-23T09:09:48.497Z,7.20
2022-11-23T09:12:15.382Z,7.20
2022-11-23T09:14:42.514Z,7.20
2022-11-23T09:17:09.658Z,7.20
2022-11-23T09:19:36.450Z,7.30
2022-11-23T09:22:03.408Z,7.40
2022-11-23T09:24:30.440Z,7.40
2022-11-23T09:26:58.374Z,7.40
2022-11-23T09:29:25.577Z,7.40
2022-11-23T09:31:52.980Z,7.40
2022-11-23T09:34:20.089Z,7.60
2022-11-23T09:36:47.324Z,7.50
2022-11-23T09:39:14.210Z,7.50
2022-11-23T09:41:59.616Z,7.60
2022-11-23T09:45:04.550Z,7.60
2022-11-23T09:48:10.082Z,7.60
2022-11-23T09:50:47.916Z,7.60
2022-11-23T09:53:38.520Z,7.70
2022-11-23T09:56:09.319Z,7.70
2022-11-23T09:58:41.163Z,7.70
2022-11-23T10:01:13.002Z,7.80
2022-11-23T10:03:46.999Z,7.70
2022-11-23T10:06:18.370Z,7.90
2022-11-23T10:08:51.294Z,8.00
2022-11-23T10:11:49.069Z,7.90
2022-11-23T10:14:38.135Z,8.00
2022-11-23T10:17:15.175Z,8.10
2022-11-23T10:19:58.395Z,8.00
2022-11-23T10:22:48.535Z,7.90
2022-11-23T10:25:23.022Z,8.00
2022-11-23T10:27:54.501Z,8.00
2022-11-23T10:30:21.308Z,8.10
2022-11-23T10:32:53.692Z,8.20
2022-11-23T10:35:32.956Z,8.30
2022-11-23T10:38:19.075Z,8.30
2022-11-23T10:40:57.156Z,8.40
2022-11-23T10:43:27.967Z,8.40
2022-11-23T10:46:38.201Z,8.50
2022-11-23T10:49:19.579Z,8.50
2022-11-23T10:52:00.117Z,8.50
2022-11-23T10:54:36.949Z,8.60
2022-11-23T10:57:37.062Z,8.60
2022-11-23T11:00:04.496Z,8.60
2022-11-23T11:02:40.077Z,8.60
2022-11-23T11:06:01.088Z,8.80
2022-11-23T11:08:18.277Z,8.90
2022-11-23T11:11:31.510Z,8.80
2022-11-23T11:14:14.555Z,8.80
2022-11-23T11:16:48.988Z,8.80
2022-11-23T11:19:33.676Z,8.90
2022-11-23T11:22:24.519Z,8.90
2022-11-23T11:24:51.459Z,9.00
2022-11-23T11:27:23.663Z,9.10
2022-11-23T11:29:52.293Z,9.20
2022-11-23T11:32:28.219Z,9.20
2022-11-23T11:35:20.556Z,9.30
2022-11-23T11:37:51.383Z,9.30
2022-11-23T11:40:33.168Z,9.40
2022-11-23T11:43:31.316Z,9.50
2022-11-23T11:46:32.199Z,9.50
2022-11-23T11:49:19.098Z,9.50
2022-11-23T11:51:58.948Z,9.50
2022-11-23T11:54:37.163Z,9.60
2022-11-23T11:57:10.332Z,9.60
2022-11-23T11:59:45.896Z,9.60
2022-11-23T12:02:28.791Z,9.60
2022-11-23T12:05:13.505Z,9.60
2022-11-23T12:07:52.837Z,9.60
2022-11-23T12:10:27.986Z,9.50
2022-11-23T12:12:56.607Z,9.50
2022-11-23T12:15:50.500Z,9.60
2022-11-23T12:18:46.525Z,9.60
2022-11-23T12:21:23.341Z,9.60
2022-11-23T12:23:53.515Z,9.50
2022-11-23T12:26:41.496Z,9.50
2022-11-23T12:29:31.771Z,9.40
2022-11-23T12:32:37.036Z,9.40
2022-11-23T12:35:26.398Z,9.40
2022-11-23T12:38:02.938Z,9.30
2022-11-23T12:41:05.140Z,9.20
2022-11-23T12:43:40.922Z,9.20
2022-11-23T12:46:10.534Z,9.20
2022-11-23T12:49:05.704Z,8.90
2022-11-23T12:51:42.530Z,8.90
2022-11-23T12:54:32.474Z,8.80
2022-11-23T12:56:59.559Z,8.80
2022-11-23T12:59:39.705Z,8.90
2022-11-23T13:02:36.830Z,8.90
2022-11-23T13:05:09.660Z,8.80
2022-11-23T13:07:57.692Z,8.70
2022-11-23T13:10:52.525Z,8.60
2022-11-23T13:14:03.063Z,8.50
2022-11-23T13:16:58.572Z,8.60
2022-11-23T13:19:31.579Z,8.40
2022-11-23T13:21:58.735Z,8.40
2022-11-23T13:24:37.884Z,8.40
2022-11-23T13:27:13.235Z,8.30
2022-11-23T13:29:56.228Z,8.40
2022-11-23T13:32:46.020Z,8.40
2022-11-23T13:35:22.501Z,8.30
2022-11-23T13:37:58.360Z,8.40
2022-11-23T13:40:33.889Z,8.10
2022-11-23T13:43:13.512Z,8.20
2022-11-23T13:45:40.286Z,8.20
2022-11-23T13:48:09.657Z,8.10
2022-11-23T13:50:51.535Z,8.20
2022-11-23T13:53:26.705Z,8.20
2022-11-23T13:55:56.791Z,8.20
2022-11-23T13:58:23.651Z,8.20
2022-11-23T14:00:54.707Z,8.20
2022-11-23T14:03:44.032Z,8.20
2022-11-23T14:06:27.267Z,8.20
2022-11-23T14:09:02.509Z,8.10
2022-11-23T14:11:31.743Z,8.00
2022-11-23T14:14:05.055Z,7.90
2022-11-23T14:17:07.792Z,8.00
2022-11-23T14:19:44.094Z,8.10
2022-11-23T14:22:31.372Z,8.00
2022-11-23T14:25:24.503Z,8.00
2022-11-23T14:28:34.489Z,8.00
2022-11-23T14:31:13.311Z,7.90
2022-11-23T14:33:44.306Z,8.00
2022-11-23T14:36:22.834Z,8.10
2022-11-23T14:39:04.635Z,8.10
2022-11-23T14:41:36.438Z,7.90
2022-11-23T14:44:10.478Z,8.00
2022-11-23T14:46:37.219Z,8.10
2022-11-23T14:49:06.949Z,8.10
2022-11-23T14:51:34.938Z,8.20
2022-11-23T14:54:08.439Z,8.00
2022-11-23T14:56:47.477Z,8.00
2022-11-23T14:59:17.237Z,8.10
2022-11-23T15:02:03.677Z,8.10
2022-11-23T15:04:37.678Z,8.00
2022-11-23T15:07:17.408Z,8.10
2022-11-23T15:09:51.668Z,8.00
2022-11-23T15:12:40.518Z,8.00
2022-11-23T15:15:30.528Z,8.00
2022-11-23T15:17:58.999Z,8.00
2022-11-23T15:20:48.698Z,8.10
2022-11-23T15:23:23.887Z,8.10
2022-11-23T15:25:55.235Z,8.20
2022-11-23T15:28:26.892Z,8.20
2022-11-23T15:30:58.312Z,8.20
2022-11-23T15:33:25.852Z,8.40
2022-11-23T15:35:53.691Z,8.40
2022-11-23T15:38:23.853Z,8.30
2022-11-23T15:40:51.277Z,8.20
2022-11-23T15:43:19.710Z,8.20
2022-11-23T15:45:46.586Z,8.20
2022-11-23T15:48:16.241Z,8.20
2022-11-23T15:50:52.567Z,8.20
2022-11-23T15:53:22.142Z,8.30
2022-11-23T15:55:50.100Z,8.20
2022-11-23T15:58:19.607Z,8.20
2022-11-23T16:01:05.328Z,8.10
2022-11-23T16:03:56.624Z,8.10
2022-11-23T16:06:28.505Z,8.10
2022-11-23T16:08:55.451Z,8.10
2022-11-23T16:11:44.868Z,8.10
2022-11-23T16:14:13.460Z,8.00
2022-11-23T16:16:45.550Z,8.00
2022-11-23T16:19:27.512Z,7.90
2022-11-23T16:22:02.785Z,8.00
2022-11-23T16:24:31.739Z,8.10
2022-11-23T16:26:58.791Z,8.10
2022-11-23T16:29:35.799Z,8.00
2022-11-23T16:32:07.184Z,8.00
2022-11-23T16:34:34.500Z,8.00
2022-11-23T16:37:03.936Z,8.00
2022-11-23T16:39:30.719Z,7.90
2022-11-23T16:41:57.479Z,7.90
2022-11-23T16:44:24.214Z,8.00
2022-11-23T16:46:52.151Z,7.90
2022-11-23T16:49:21.608Z,8.00
2022-11-23T16:51:57.053Z,8.00
2022-11-23T16:54:25.349Z,8.00
2022-11-23T16:56:52.835Z,7.90
2022-11-23T16:59:20.222Z,8.00
2022-11-23T17:01:53.937Z,8.00
2022-11-23T17:04:24.229Z,7.90
2022-11-23T17:06:51.062Z,8.00
2022-11-23T17:09:17.852Z,7.90
2022-11-23T17:11:47.557Z,7.90
2022-11-23T17:14:18.870Z,7.90
2022-11-23T17:16:47.012Z,7.80
2022-11-23T17:19:19.323Z,8.00
2022-11-23T17:21:46.194Z,8.00
2022-11-23T17:24:14.104Z,8.00
2022-11-23T17:26:44.388Z,8.00
2022-11-23T17:29:15.517Z,8.00
2022-11-23T17:31:45.684Z,8.30
2022-11-23T17:34:13.520Z,8.30
2022-11-23T17:36:41.689Z,8.10
2022-11-23T17:39:15.480Z,8.20
2022-11-23T17:41:42.221Z,8.20
2022-11-23T17:44:09.759Z,8.30
2022-11-23T17:46:36.714Z,8.30
2022-11-23T17:49:04.082Z,8.30
2022-11-23T17:51:31.131Z,8.30
2022-11-23T17:53:57.882Z,8.30
2022-11-23T17:56:28.241Z,8.30
2022-11-23T17:58:55.151Z,8.30
2022-11-23T18:01:23.743Z,8.30
2022-11-23T18:03:51.002Z,8.30
2022-11-23T18:06:23.271Z,8.30
2022-11-23T18:08:51.739Z,8.30
2022-11-23T18:11:20.366Z,8.30
2022-11-23T18:13:48.799Z,8.30
2022-11-23T18:16:16.337Z,8.40
2022-11-23T18:18:43.419Z,8.30
2022-11-23T18:21:10.956Z,8.40
2022-11-23T18:23:37.990Z,8.40
2022-11-23T18:26:13.946Z,8.50
2022-11-23T18:28:40.859Z,8.40
2022-11-23T18:31:08.524Z,8.40
2022-11-23T18:33:35.460Z,8.40
2022-11-23T18:36:05.407Z,8.40
2022-11-23T18:38:33.662Z,8.40
2022-11-23T18:41:00.588Z,8.50
2022-11-23T18:43:27.459Z,8.40
2022-11-23T18:45:54.872Z,8.40
2022-11-23T18:48:21.968Z,8.50
2022-11-23T18:50:48.870Z,8.40
2022-11-23T18:53:16.028Z,8.40
2022-11-23T18:55:42.827Z,8.50
2022-11-23T18:58:10.506Z,8.50
2022-11-23T19:00:37.252Z,8.60
2022-11-23T19:03:04.164Z,8.50
2022-11-23T19:05:33.755Z,8.50
2022-11-23T19:08:05.921Z,8.40
2022-11-23T19:10:35.530Z,8.40
2022-11-23T19:13:05.705Z,8.60
2022-11-23T19:15:33.441Z,8.60
2022-11-23T19:18:00.461Z,8.70
2022-11-23T19:20:28.949Z,8.60
2022-11-23T19:22:55.974Z,8.70
2022-11-23T19:25:22.843Z,8.70
2022-11-23T19:27:51.346Z,8.70
2022-11-23T19:30:18.498Z,8.60
2022-11-23T19:32:45.404Z,8.70
2022-11-23T19:35:12.272Z,8.70
2022-11-23T19:37:39.356Z,8.70
2022-11-23T19:40:06.783Z,8.70
2022-11-23T19:42:35.758Z,8.80
2022-11-23T19:45:03.673Z,8.70
2022-11-23T19:47:31.627Z,8.70
2022-11-23T19:49:59.259Z,8.60
2022-11-23T19:52:41.978Z,8.70
2022-11-23T19:55:16.451Z,8.70
2022-11-23T19:57:43.220Z,8.70
2022-11-23T20:00:10.681Z,8.70
2022-11-23T20:02:37.544Z,8.70
2022-11-23T20:05:04.629Z,8.70
2022-11-23T20:07:31.838Z,8.80
2022-11-23T20:09:58.804Z,8.80
2022-11-23T20:12:25.554Z,8.70
2022-11-23T20:14:52.323Z,8.60
2022-11-23T20:17:19.175Z,8.60
2022-11-23T20:19:45.947Z,8.70
2022-11-23T20:22:12.671Z,8.70
2022-11-23T20:24:39.368Z,8.70
2022-11-23T20:27:06.122Z,8.70
2022-11-23T20:29:33.077Z,8.70
2022-11-23T20:31:59.969Z,8.70
2022-11-23T20:34:27.317Z,8.80
2022-11-23T20:36:54.102Z,8.70
2022-11-23T20:39:20.968Z,8.70
2022-11-23T20:41:49.712Z,8.70
2022-11-23T20:44:16.852Z,8.60
2022-11-23T20:49:31.664Z,8.60
2022-11-23T20:51:59.510Z,8.70
2022-11-23T20:54:26.483Z,8.70
2022-11-23T20:56:53.267Z,8.70
2022-11-23T20:59:20.701Z,8.60
2022-11-23T21:01:47.562Z,8.80
2022-11-23T21:04:14.387Z,8.70
2022-11-23T21:06:41.246Z,8.70
2022-11-23T21:09:09.665Z,8.60
2022-11-23T21:11:55.316Z,8.70
2022-11-23T21:14:24.689Z,8.60
2022-11-23T21:16:56.958Z,8.60
2022-11-23T21:19:28.610Z,8.60
2022-11-23T21:21:57.506Z,8.70
2022-11-23T21:24:24.938Z,8.70
2022-11-23T21:26:52.135Z,8.70
2022-11-23T21:29:19.486Z,8.70
2022-11-23T21:31:48.100Z,8.70
2022-11-23T21:34:23.443Z,8.70
2022-11-23T21:36:51.038Z,8.70
2022-11-23T21:39:18.040Z,8.70
2022-11-23T21:41:45.216Z,8.70
2022-11-23T21:44:12.164Z,8.70
2022-11-23T21:46:40.318Z,8.70
2022-11-23T21:49:07.652Z,8.60
2022-11-23T21:51:35.894Z,8.60
2022-11-23T21:54:05.310Z,8.60
2022-11-23T21:56:32.528Z,8.60
2022-11-23T21:58:59.685Z,8.70
2022-11-23T22:01:31.589Z,8.70
2022-11-23T22:04:01.759Z,8.70
2022-11-23T22:06:29.063Z,8.70
2022-11-23T22:08:58.266Z,8.80
2022-11-23T22:11:32.139Z,8.70
2022-11-23T22:14:00.709Z,8.70
2022-11-23T22:16:30.079Z,8.70
2022-11-23T22:18:57.807Z,8.70
2022-11-23T22:21:26.886Z,8.80
2022-11-23T22:23:54.140Z,8.80
2022-11-23T22:26:21.516Z,8.80
2022-11-23T22:28:50.686Z,8.70
2022-11-23T22:31:22.957Z,8.80
2022-11-23T22:33:50.502Z,8.90
2022-11-23T22:36:19.844Z,8.80
2022-11-23T22:38:47.188Z,8.80
2022-11-23T22:41:17.739Z,8.80
2022-11-23T22:43:45.190Z,8.90
2022-11-23T22:46:17.683Z,8.80
2022-11-23T22:48:46.649Z,8.70
2022-11-23T22:51:19.027Z,8.80
2022-11-23T22:53:46.254Z,8.80
2022-11-23T22:56:16.024Z,8.90
2022-11-23T22:58:44.542Z,8.90
2022-11-23T23:01:20.291Z,8.90
2022-11-23T23:03:47.786Z,8.90
2022-11-23T23:06:19.897Z,8.80
2022-11-23T23:08:48.202Z,8.90
2022-11-23T23:11:15.724Z,8.90
2022-11-23T23:13:42.919Z,8.80
2022-11-23T23:16:13.541Z,8.80
2022-11-23T23:18:44.148Z,8.80
2022-11-23T23:21:14.448Z,8.90
2022-11-23T23:23:43.960Z,8.80
2022-11-23T23:26:12.065Z,8.90
2022-11-23T23:28:39.280Z,8.80
2022-11-23T23:31:09.305Z,8.80
2022-11-23T23:33:36.437Z,8.70
2022-11-23T23:36:09.200Z,8.70
2022-11-23T23:38:37.415Z,8.70
2022-11-23T23:41:05.961Z,8.80
2022-11-23T23:43:33.912Z,8.80
2022-11-23T23:46:03.228Z,8.90
2022-11-23T23:48:35.167Z,8.80
2022-11-23T23:51:26.053Z,8.80
2022-11-23T23:53:53.178Z,8.70
2022-11-23T23:56:23.024Z,8.80
2022-11-23T23:58:49.929Z,8.80
